sensor_id;sensor_type;location;lat;lon;timestamp;pressure;altitude;pressure_sealevel;temperature;humidity
24486;BME280;13449;49.374;8.584;2024-03-08T00:01:32;100515.06;;;5.31;100.00
24486;BME280;13449;49.374;8.584;2024-03-08T00:03:59;100510.34;;;5.22;100.00
24486;BME280;13449;49.374;8.584;2024-03-08T00:06:29;100502.81;;;5.16;100.00
24486;BME280;13449;49.374;8.584;2024-03-08T00:08:56;100506.34;;;5.15;100.00
24486;BME280;13449;49.374;8.584;2024-03-08T00:11:23;100516.88;;;5.13;100.00
24486;BME280;13449;49.374;8.584;2024-03-08T00:13:52;100502.81;;;5.16;100.00
24486;BME280;13449;49.374;8.584;2024-03-08T00:16:21;100495.31;;;5.09;100.00
24486;BME280;13449;49.374;8.584;2024-03-08T00:18:49;100497.09;;;5.09;100.00
24486;BME280;13449;49.374;8.584;2024-03-08T00:21:16;100492.38;;;5.16;100.00
24486;BME280;13449;49.374;8.584;2024-03-08T00:23:43;100493.66;;;5.08;100.00
24486;BME280;13449;49.374;8.584;2024-03-08T00:26:12;100493.88;;;5.04;100.00
24486;BME280;13449;49.374;8.584;2024-03-08T00:28:38;100484.25;;;5.04;100.00
24486;BME280;13449;49.374;8.584;2024-03-08T00:31:05;100482.75;;;5.00;100.00
24486;BME280;13449;49.374;8.584;2024-03-08T00:33:33;100481.81;;;5.01;100.00
24486;BME280;13449;49.374;8.584;2024-03-08T00:36:02;100484.44;;;5.01;100.00
24486;BME280;13449;49.374;8.584;2024-03-08T00:38:28;100471.56;;;4.98;100.00
24486;BME280;13449;49.374;8.584;2024-03-08T00:40:57;100475.50;;;4.90;100.00
24486;BME280;13449;49.374;8.584;2024-03-08T00:43:24;100466.84;;;4.89;100.00
24486;BME280;13449;49.374;8.584;2024-03-08T00:45:50;100460.69;;;4.90;100.00
24486;BME280;13449;49.374;8.584;2024-03-08T00:48:17;100470.50;;;4.85;100.00
24486;BME280;13449;49.374;8.584;2024-03-08T00:50:47;100466.22;;;4.84;100.00
24486;BME280;13449;49.374;8.584;2024-03-08T00:53:14;100464.69;;;4.80;100.00
24486;BME280;13449;49.374;8.584;2024-03-08T00:55:41;100450.72;;;4.81;100.00
24486;BME280;13449;49.374;8.584;2024-03-08T00:58:10;100456.78;;;4.81;100.00
24486;BME280;13449;49.374;8.584;2024-03-08T01:00:37;100459.47;;;4.80;100.00
24486;BME280;13449;49.374;8.584;2024-03-08T01:03:05;100454.44;;;4.77;100.00
24486;BME280;13449;49.374;8.584;2024-03-08T01:05:32;100451.81;;;4.77;100.00
24486;BME280;13449;49.374;8.584;2024-03-08T01:08:01;100456.13;;;4.78;100.00
24486;BME280;13449;49.374;8.584;2024-03-08T01:10:29;100445.22;;;4.70;100.00
24486;BME280;13449;49.374;8.584;2024-03-08T01:12:58;100446.91;;;4.71;100.00
24486;BME280;13449;49.374;8.584;2024-03-08T01:15:26;100440.94;;;4.69;100.00
24486;BME280;13449;49.374;8.584;2024-03-08T01:17:55;100448.09;;;4.65;100.00
24486;BME280;13449;49.374;8.584;2024-03-08T01:20:21;100439.75;;;4.59;100.00
24486;BME280;13449;49.374;8.584;2024-03-08T01:22:48;100436.69;;;4.50;100.00
24486;BME280;13449;49.374;8.584;2024-03-08T01:25:15;100442.91;;;4.48;100.00
24486;BME280;13449;49.374;8.584;2024-03-08T01:27:41;100436.84;;;4.47;100.00
24486;BME280;13449;49.374;8.584;2024-03-08T01:30:11;100423.34;;;4.39;100.00
24486;BME280;13449;49.374;8.584;2024-03-08T01:32:39;100425.94;;;4.39;100.00
24486;BME280;13449;49.374;8.584;2024-03-08T01:35:06;100419.97;;;4.37;100.00
24486;BME280;13449;49.374;8.584;2024-03-08T01:37:32;100419.22;;;4.35;100.00
24486;BME280;13449;49.374;8.584;2024-03-08T01:40:02;100412.41;;;4.33;100.00
24486;BME280;13449;49.374;8.584;2024-03-08T01:42:29;100415.34;;;4.27;100.00
24486;BME280;13449;49.374;8.584;2024-03-08T01:44:56;100406.78;;;4.23;100.00
24486;BME280;13449;49.374;8.584;2024-03-08T01:47:23;100403.13;;;4.27;100.00
24486;BME280;13449;49.374;8.584;2024-03-08T01:49:50;100404.28;;;4.21;100.00
24486;BME280;13449;49.374;8.584;2024-03-08T01:52:17;100403.91;;;4.12;100.00
24486;BME280;13449;49.374;8.584;2024-03-08T01:54:47;100398.38;;;4.18;100.00
24486;BME280;13449;49.374;8.584;2024-03-08T01:57:14;100402.75;;;4.17;100.00
24486;BME280;13449;49.374;8.584;2024-03-08T01:59:43;100392.88;;;4.07;100.00
24486;BME280;13449;49.374;8.584;2024-03-08T02:02:11;100388.56;;;4.06;100.00
24486;BME280;13449;49.374;8.584;2024-03-08T02:04:40;100393.50;;;4.12;100.00
24486;BME280;13449;49.374;8.584;2024-03-08T02:07:06;100378.59;;;4.14;100.00
24486;BME280;13449;49.374;8.584;2024-03-08T02:09:36;100377.00;;;4.11;100.00
24486;BME280;13449;49.374;8.584;2024-03-08T02:12:03;100376.31;;;4.08;100.00
24486;BME280;13449;49.374;8.584;2024-03-08T02:14:30;100380.84;;;4.04;100.00
24486;BME280;13449;49.374;8.584;2024-03-08T02:17:01;100380.00;;;4.04;100.00
24486;BME280;13449;49.374;8.584;2024-03-08T02:19:28;100374.09;;;4.00;100.00
24486;BME280;13449;49.374;8.584;2024-03-08T02:21:55;100374.19;;;3.99;100.00
24486;BME280;13449;49.374;8.584;2024-03-08T02:24:22;100375.69;;;4.03;100.00
24486;BME280;13449;49.374;8.584;2024-03-08T02:26:50;100372.25;;;4.02;100.00
24486;BME280;13449;49.374;8.584;2024-03-08T02:29:17;100370.56;;;4.01;100.00
24486;BME280;13449;49.374;8.584;2024-03-08T02:31:44;100366.38;;;3.99;100.00
24486;BME280;13449;49.374;8.584;2024-03-08T02:34:10;100369.19;;;3.94;100.00
24486;BME280;13449;49.374;8.584;2024-03-08T02:36:37;100357.91;;;3.94;100.00
24486;BME280;13449;49.374;8.584;2024-03-08T02:39:04;100344.97;;;3.92;100.00
24486;BME280;13449;49.374;8.584;2024-03-08T02:41:32;100351.03;;;3.92;100.00
24486;BME280;13449;49.374;8.584;2024-03-08T02:44:01;100351.84;;;3.93;100.00
24486;BME280;13449;49.374;8.584;2024-03-08T02:46:27;100346.13;;;3.86;100.00
24486;BME280;13449;49.374;8.584;2024-03-08T02:48:54;100349.81;;;3.82;100.00
24486;BME280;13449;49.374;8.584;2024-03-08T02:51:23;100348.22;;;3.80;100.00
24486;BME280;13449;49.374;8.584;2024-03-08T02:53:49;100345.06;;;3.73;100.00
24486;BME280;13449;49.374;8.584;2024-03-08T02:56:18;100340.84;;;3.71;100.00
24486;BME280;13449;49.374;8.584;2024-03-08T02:58:45;100347.06;;;3.68;100.00
24486;BME280;13449;49.374;8.584;2024-03-08T03:01:15;100343.38;;;3.72;100.00
24486;BME280;13449;49.374;8.584;2024-03-08T03:03:46;100343.53;;;3.69;100.00
24486;BME280;13449;49.374;8.584;2024-03-08T03:06:13;100346.06;;;3.71;100.00
24486;BME280;13449;49.374;8.584;2024-03-08T03:08:40;100341.38;;;3.60;100.00
24486;BME280;13449;49.374;8.584;2024-03-08T03:11:09;100342.28;;;3.59;100.00
24486;BME280;13449;49.374;8.584;2024-03-08T03:13:35;100336.94;;;3.62;100.00
24486;BME280;13449;49.374;8.584;2024-03-08T03:16:02;100335.56;;;3.55;100.00
24486;BME280;13449;49.374;8.584;2024-03-08T03:18:30;100335.41;;;3.58;100.00
24486;BME280;13449;49.374;8.584;2024-03-08T03:20:56;100334.47;;;3.59;100.00
24486;BME280;13449;49.374;8.584;2024-03-08T03:23:23;100324.31;;;3.54;100.00
24486;BME280;13449;49.374;8.584;2024-03-08T03:25:50;100324.47;;;3.51;100.00
24486;BME280;13449;49.374;8.584;2024-03-08T03:28:18;100326.00;;;3.55;100.00
24486;BME280;13449;49.374;8.584;2024-03-08T03:30:50;100336.47;;;3.54;100.00
24486;BME280;13449;49.374;8.584;2024-03-08T03:33:19;100328.34;;;3.60;100.00
24486;BME280;13449;49.374;8.584;2024-03-08T03:35:45;100329.44;;;3.56;100.00
24486;BME280;13449;49.374;8.584;2024-03-08T03:38:14;100329.50;;;3.54;100.00
24486;BME280;13449;49.374;8.584;2024-03-08T03:40:43;100324.63;;;3.48;100.00
24486;BME280;13449;49.374;8.584;2024-03-08T03:43:12;100318.25;;;3.54;100.00
24486;BME280;13449;49.374;8.584;2024-03-08T03:45:39;100323.47;;;3.54;100.00
24486;BME280;13449;49.374;8.584;2024-03-08T03:48:10;100317.50;;;3.52;100.00
24486;BME280;13449;49.374;8.584;2024-03-08T03:50:38;100315.16;;;3.46;100.00
24486;BME280;13449;49.374;8.584;2024-03-08T03:53:06;100315.88;;;3.49;100.00
24486;BME280;13449;49.374;8.584;2024-03-08T03:55:36;100308.16;;;3.48;100.00
24486;BME280;13449;49.374;8.584;2024-03-08T03:58:07;100309.03;;;3.47;100.00
24486;BME280;13449;49.374;8.584;2024-03-08T04:00:37;100304.91;;;3.43;100.00
24486;BME280;13449;49.374;8.584;2024-03-08T04:03:04;100303.06;;;3.45;100.00
24486;BME280;13449;49.374;8.584;2024-03-08T04:05:31;100299.78;;;3.41;100.00
24486;BME280;13449;49.374;8.584;2024-03-08T04:07:58;100297.88;;;3.45;100.00
24486;BME280;13449;49.374;8.584;2024-03-08T04:10:24;100296.19;;;3.44;100.00
24486;BME280;13449;49.374;8.584;2024-03-08T04:12:53;100295.34;;;3.43;100.00
24486;BME280;13449;49.374;8.584;2024-03-08T04:15:20;100285.84;;;3.42;100.00
24486;BME280;13449;49.374;8.584;2024-03-08T04:17:49;100293.66;;;3.42;100.00
24486;BME280;13449;49.374;8.584;2024-03-08T04:20:19;100289.59;;;3.37;100.00
24486;BME280;13449;49.374;8.584;2024-03-08T04:22:48;100289.53;;;3.38;100.00
24486;BME280;13449;49.374;8.584;2024-03-08T04:25:16;100294.97;;;3.34;100.00
24486;BME280;13449;49.374;8.584;2024-03-08T04:27:45;100291.59;;;3.32;100.00
24486;BME280;13449;49.374;8.584;2024-03-08T04:30:12;100290.88;;;3.28;100.00
24486;BME280;13449;49.374;8.584;2024-03-08T04:32:41;100285.00;;;3.24;100.00
24486;BME280;13449;49.374;8.584;2024-03-08T04:35:09;100283.84;;;3.30;100.00
24486;BME280;13449;49.374;8.584;2024-03-08T04:37:36;100284.69;;;3.30;100.00
24486;BME280;13449;49.374;8.584;2024-03-08T04:40:03;100279.44;;;3.32;100.00
24486;BME280;13449;49.374;8.584;2024-03-08T04:42:30;100280.63;;;3.25;100.00
24486;BME280;13449;49.374;8.584;2024-03-08T04:44:59;100270.91;;;3.28;100.00
24486;BME280;13449;49.374;8.584;2024-03-08T04:47:26;100270.69;;;3.33;100.00
24486;BME280;13449;49.374;8.584;2024-03-08T04:49:53;100270.91;;;3.28;100.00
24486;BME280;13449;49.374;8.584;2024-03-08T04:52:20;100271.75;;;3.29;100.00
24486;BME280;13449;49.374;8.584;2024-03-08T04:54:48;100280.78;;;3.22;100.00
24486;BME280;13449;49.374;8.584;2024-03-08T04:57:14;100274.91;;;3.18;100.00
24486;BME280;13449;49.374;8.584;2024-03-08T04:59:41;100272.16;;;3.21;100.00
24486;BME280;13449;49.374;8.584;2024-03-08T05:02:08;100266.19;;;3.19;100.00
24486;BME280;13449;49.374;8.584;2024-03-08T05:04:35;100261.13;;;3.16;100.00
24486;BME280;13449;49.374;8.584;2024-03-08T05:07:04;100267.53;;;3.09;100.00
24486;BME280;13449;49.374;8.584;2024-03-08T05:09:32;100259.72;;;3.09;100.00
24486;BME280;13449;49.374;8.584;2024-03-08T05:12:00;100259.13;;;3.04;100.00
24486;BME280;13449;49.374;8.584;2024-03-08T05:14:28;100269.97;;;3.12;100.00
24486;BME280;13449;49.374;8.584;2024-03-08T05:16:56;100267.69;;;3.06;100.00
24486;BME280;13449;49.374;8.584;2024-03-08T05:19:23;100263.69;;;2.99;100.00
24486;BME280;13449;49.374;8.584;2024-03-08T05:21:50;100263.41;;;3.05;100.00
24486;BME280;13449;49.374;8.584;2024-03-08T05:24:19;100262.22;;;2.93;100.00
24486;BME280;13449;49.374;8.584;2024-03-08T05:26:46;100265.75;;;2.92;100.00
24486;BME280;13449;49.374;8.584;2024-03-08T05:29:16;100260.09;;;2.84;100.00
24486;BME280;13449;49.374;8.584;2024-03-08T05:31:48;100260.28;;;2.80;100.00
24486;BME280;13449;49.374;8.584;2024-03-08T05:34:17;100260.22;;;2.81;100.00
24486;BME280;13449;49.374;8.584;2024-03-08T05:36:48;100253.91;;;2.87;100.00
24486;BME280;13449;49.374;8.584;2024-03-08T05:39:22;100258.53;;;2.80;100.00
24486;BME280;13449;49.374;8.584;2024-03-08T05:41:53;100263.72;;;2.80;100.00
24486;BME280;13449;49.374;8.584;2024-03-08T05:44:22;100269.56;;;2.85;100.00
24486;BME280;13449;49.374;8.584;2024-03-08T05:46:50;100250.66;;;2.82;100.00
24486;BME280;13449;49.374;8.584;2024-03-08T05:49:19;100269.00;;;2.79;100.00
24486;BME280;13449;49.374;8.584;2024-03-08T05:51:50;100270.06;;;2.75;100.00
24486;BME280;13449;49.374;8.584;2024-03-08T05:54:21;100264.72;;;2.78;100.00
24486;BME280;13449;49.374;8.584;2024-03-08T05:56:52;100260.44;;;2.77;100.00
24486;BME280;13449;49.374;8.584;2024-03-08T05:59:21;100255.84;;;2.82;100.00
24486;BME280;13449;49.374;8.584;2024-03-08T06:01:52;100262.88;;;2.80;100.00
24486;BME280;13449;49.374;8.584;2024-03-08T06:04:20;100252.34;;;2.83;100.00
24486;BME280;13449;49.374;8.584;2024-03-08T06:06:48;100249.88;;;2.80;100.00
24486;BME280;13449;49.374;8.584;2024-03-08T06:09:25;100250.53;;;2.85;100.00
24486;BME280;13449;49.374;8.584;2024-03-08T06:11:54;100246.00;;;2.88;100.00
24486;BME280;13449;49.374;8.584;2024-03-08T06:14:23;100240.88;;;2.87;100.00
24486;BME280;13449;49.374;8.584;2024-03-08T06:16:51;100241.81;;;2.86;100.00
24486;BME280;13449;49.374;8.584;2024-03-08T06:19:18;100245.31;;;2.85;100.00
24486;BME280;13449;49.374;8.584;2024-03-08T06:21:48;100243.25;;;2.91;100.00
24486;BME280;13449;49.374;8.584;2024-03-08T06:24:15;100244.59;;;3.00;100.00
24486;BME280;13449;49.374;8.584;2024-03-08T06:26:43;100248.03;;;3.00;100.00
24486;BME280;13449;49.374;8.584;2024-03-08T06:29:15;100241.81;;;3.03;100.00
24486;BME280;13449;49.374;8.584;2024-03-08T06:31:42;100237.31;;;3.07;100.00
24486;BME280;13449;49.374;8.584;2024-03-08T06:34:15;100242.28;;;3.11;100.00
24486;BME280;13449;49.374;8.584;2024-03-08T06:36:42;100241.44;;;3.11;100.00
24486;BME280;13449;49.374;8.584;2024-03-08T06:39:17;100246.78;;;3.08;100.00
24486;BME280;13449;49.374;8.584;2024-03-08T06:41:44;100240.59;;;3.10;100.00
24486;BME280;13449;49.374;8.584;2024-03-08T06:44:16;100244.88;;;3.11;100.00
24486;BME280;13449;49.374;8.584;2024-03-08T06:46:48;100244.59;;;3.17;100.00
24486;BME280;13449;49.374;8.584;2024-03-08T06:49:16;100247.63;;;3.25;100.00
24486;BME280;13449;49.374;8.584;2024-03-08T06:51:43;100243.19;;;3.27;100.00
24486;BME280;13449;49.374;8.584;2024-03-08T06:54:10;100249.03;;;3.33;100.00
24486;BME280;13449;49.374;8.584;2024-03-08T06:56:38;100242.75;;;3.37;100.00
24486;BME280;13449;49.374;8.584;2024-03-08T06:59:06;100240.75;;;3.42;100.00
24486;BME280;13449;49.374;8.584;2024-03-08T07:01:45;100241.34;;;3.47;100.00
24486;BME280;13449;49.374;8.584;2024-03-08T07:04:45;100252.38;;;3.52;100.00
24486;BME280;13449;49.374;8.584;2024-03-08T07:07:13;100247.19;;;3.52;100.00
24486;BME280;13449;49.374;8.584;2024-03-08T07:09:53;100243.56;;;3.54;100.00
24486;BME280;13449;49.374;8.584;2024-03-08T07:12:26;100242.31;;;3.61;100.00
24486;BME280;13449;49.374;8.584;2024-03-08T07:15:23;100238.34;;;3.72;100.00
24486;BME280;13449;49.374;8.584;2024-03-08T07:18:41;100232.75;;;3.79;100.00
24486;BME280;13449;49.374;8.584;2024-03-08T07:22:37;100228.88;;;3.86;100.00
24486;BME280;13449;49.374;8.584;2024-03-08T07:25:14;100228.78;;;3.88;100.00
24486;BME280;13449;49.374;8.584;2024-03-08T07:32:02;100221.09;;;4.02;100.00
24486;BME280;13449;49.374;8.584;2024-03-08T07:35:48;100219.25;;;4.04;100.00
24486;BME280;13449;49.374;8.584;2024-03-08T07:39:37;100217.06;;;4.12;100.00
24486;BME280;13449;49.374;8.584;2024-03-08T07:43:21;100224.16;;;4.26;100.00
24486;BME280;13449;49.374;8.584;2024-03-08T07:47:12;100219.53;;;4.31;100.00
24486;BME280;13449;49.374;8.584;2024-03-08T07:50:27;100210.34;;;4.24;100.00
24486;BME280;13449;49.374;8.584;2024-03-08T07:52:58;100214.72;;;4.39;100.00
24486;BME280;13449;49.374;8.584;2024-03-08T07:55:25;100210.50;;;4.37;100.00
24486;BME280;13449;49.374;8.584;2024-03-08T07:57:53;100205.13;;;4.40;100.00
24486;BME280;13449;49.374;8.584;2024-03-08T08:00:26;100200.06;;;4.53;100.00
24486;BME280;13449;49.374;8.584;2024-03-08T08:02:54;100201.75;;;4.54;100.00
24486;BME280;13449;49.374;8.584;2024-03-08T08:05:21;100196.53;;;4.54;100.00
24486;BME280;13449;49.374;8.584;2024-03-08T08:07:52;100205.81;;;4.59;100.00
24486;BME280;13449;49.374;8.584;2024-03-08T08:10:21;100197.13;;;4.59;100.00
24486;BME280;13449;49.374;8.584;2024-03-08T08:12:49;100185.50;;;4.64;100.00
24486;BME280;13449;49.374;8.584;2024-03-08T08:15:15;100190.22;;;4.73;100.00
24486;BME280;13449;49.374;8.584;2024-03-08T08:17:43;100186.22;;;4.82;100.00
24486;BME280;13449;49.374;8.584;2024-03-08T08:20:10;100180.81;;;4.85;100.00
24486;BME280;13449;49.374;8.584;2024-03-08T08:22:40;100180.59;;;5.04;100.00
24486;BME280;13449;49.374;8.584;2024-03-08T08:25:07;100183.28;;;5.02;100.00
24486;BME280;13449;49.374;8.584;2024-03-08T08:27:34;100184.03;;;5.04;100.00
24486;BME280;13449;49.374;8.584;2024-03-08T08:30:06;100177.09;;;5.05;100.00
24486;BME280;13449;49.374;8.584;2024-03-08T08:32:35;100171.78;;;5.06;100.00
24486;BME280;13449;49.374;8.584;2024-03-08T08:35:08;100168.78;;;5.13;100.00
24486;BME280;13449;49.374;8.584;2024-03-08T08:37:38;100171.81;;;5.21;100.00
24486;BME280;13449;49.374;8.584;2024-03-08T08:40:08;100172.81;;;5.18;100.00
24486;BME280;13449;49.374;8.584;2024-03-08T08:42:45;100168.72;;;5.28;100.00
24486;BME280;13449;49.374;8.584;2024-03-08T08:45:15;100174.31;;;5.22;100.00
24486;BME280;13449;49.374;8.584;2024-03-08T08:47:49;100171.34;;;5.43;100.00
24486;BME280;13449;49.374;8.584;2024-03-08T08:50:16;100172.66;;;5.50;100.00
24486;BME280;13449;49.374;8.584;2024-03-08T08:52:49;100166.59;;;5.49;100.00
24486;BME280;13449;49.374;8.584;2024-03-08T08:55:16;100153.50;;;5.35;100.00
24486;BME280;13449;49.374;8.584;2024-03-08T08:57:47;100147.66;;;5.46;100.00
24486;BME280;13449;49.374;8.584;2024-03-08T09:00:15;100152.06;;;5.59;100.00
24486;BME280;13449;49.374;8.584;2024-03-08T09:02:42;100141.78;;;5.42;100.00
24486;BME280;13449;49.374;8.584;2024-03-08T09:05:09;100145.53;;;5.38;100.00
24486;BME280;13449;49.374;8.584;2024-03-08T09:07:38;100138.41;;;5.26;100.00
24486;BME280;13449;49.374;8.584;2024-03-08T09:10:05;100144.59;;;5.39;100.00
24486;BME280;13449;49.374;8.584;2024-03-08T09:12:35;100144.59;;;5.39;100.00
24486;BME280;13449;49.374;8.584;2024-03-08T09:15:04;100134.59;;;5.31;100.00
24486;BME280;13449;49.374;8.584;2024-03-08T09:17:31;100131.25;;;5.44;100.00
24486;BME280;13449;49.374;8.584;2024-03-08T09:19:59;100127.78;;;5.57;100.00
24486;BME280;13449;49.374;8.584;2024-03-08T09:22:29;100133.94;;;5.42;100.00
24486;BME280;13449;49.374;8.584;2024-03-08T09:24:56;100137.75;;;5.51;100.00
24486;BME280;13449;49.374;8.584;2024-03-08T09:27:26;100126.22;;;5.55;100.00
24486;BME280;13449;49.374;8.584;2024-03-08T09:29:56;100129.91;;;5.65;100.00
24486;BME280;13449;49.374;8.584;2024-03-08T09:32:23;100123.84;;;5.79;100.00
24486;BME280;13449;49.374;8.584;2024-03-08T09:34:49;100127.19;;;5.81;100.00
24486;BME280;13449;49.374;8.584;2024-03-08T09:37:17;100121.50;;;5.88;100.00
24486;BME280;13449;49.374;8.584;2024-03-08T09:39:44;100118.16;;;6.27;100.00
24486;BME280;13449;49.374;8.584;2024-03-08T09:42:11;100108.78;;;6.38;100.00
24486;BME280;13449;49.374;8.584;2024-03-08T09:44:47;100112.66;;;6.32;100.00
24486;BME280;13449;49.374;8.584;2024-03-08T09:47:14;100102.13;;;6.19;100.00
24486;BME280;13449;49.374;8.584;2024-03-08T09:49:42;100100.09;;;6.10;100.00
24486;BME280;13449;49.374;8.584;2024-03-08T09:52:12;100092.28;;;5.96;100.00
24486;BME280;13449;49.374;8.584;2024-03-08T09:54:39;100097.25;;;6.27;100.00
24486;BME280;13449;49.374;8.584;2024-03-08T09:57:10;100103.00;;;6.06;100.00
24486;BME280;13449;49.374;8.584;2024-03-08T09:59:37;100095.97;;;6.20;100.00
24486;BME280;13449;49.374;8.584;2024-03-08T10:02:04;100093.88;;;6.25;100.00
24486;BME280;13449;49.374;8.584;2024-03-08T10:04:32;100089.84;;;6.07;100.00
24486;BME280;13449;49.374;8.584;2024-03-08T10:07:00;100097.53;;;5.96;100.00
24486;BME280;13449;49.374;8.584;2024-03-08T10:09:28;100094.53;;;5.88;100.00
24486;BME280;13449;49.374;8.584;2024-03-08T10:11:57;100089.66;;;5.96;100.00
24486;BME280;13449;49.374;8.584;2024-03-08T10:14:27;100096.47;;;5.98;100.00
24486;BME280;13449;49.374;8.584;2024-03-08T10:16:57;100088.56;;;6.00;100.00
24486;BME280;13449;49.374;8.584;2024-03-08T10:19:27;100096.91;;;6.19;100.00
24486;BME280;13449;49.374;8.584;2024-03-08T10:21:56;100085.41;;;6.22;100.00
24486;BME280;13449;49.374;8.584;2024-03-08T10:24:26;100090.94;;;6.17;100.00
24486;BME280;13449;49.374;8.584;2024-03-08T10:26:53;100094.19;;;6.21;100.00
24486;BME280;13449;49.374;8.584;2024-03-08T10:29:24;100088.91;;;6.08;100.00
24486;BME280;13449;49.374;8.584;2024-03-08T10:31:54;100083.84;;;6.19;100.00
24486;BME280;13449;49.374;8.584;2024-03-08T10:34:23;100081.59;;;6.40;100.00
24486;BME280;13449;49.374;8.584;2024-03-08T10:36:50;100083.31;;;6.54;100.00
24486;BME280;13449;49.374;8.584;2024-03-08T10:39:23;100077.66;;;6.60;100.00
24486;BME280;13449;49.374;8.584;2024-03-08T10:41:57;100070.16;;;6.68;100.00
24486;BME280;13449;49.374;8.584;2024-03-08T10:47:01;100065.94;;;6.53;100.00
24486;BME280;13449;49.374;8.584;2024-03-08T10:49:50;100062.06;;;6.58;100.00
24486;BME280;13449;49.374;8.584;2024-03-08T10:52:18;100065.72;;;6.56;100.00
24486;BME280;13449;49.374;8.584;2024-03-08T10:54:47;100048.56;;;6.52;100.00
24486;BME280;13449;49.374;8.584;2024-03-08T10:57:17;100057.75;;;6.57;100.00
24486;BME280;13449;49.374;8.584;2024-03-08T10:59:46;100051.94;;;6.67;100.00
24486;BME280;13449;49.374;8.584;2024-03-08T11:02:16;100056.66;;;7.00;100.00
24486;BME280;13449;49.374;8.584;2024-03-08T11:04:48;100051.09;;;6.91;100.00
24486;BME280;13449;49.374;8.584;2024-03-08T11:07:16;100055.00;;;6.99;100.00
24486;BME280;13449;49.374;8.584;2024-03-08T11:09:52;100036.34;;;6.90;100.00
24486;BME280;13449;49.374;8.584;2024-03-08T11:12:27;100038.72;;;6.94;100.00
24486;BME280;13449;49.374;8.584;2024-03-08T11:15:00;100039.69;;;7.18;100.00
24486;BME280;13449;49.374;8.584;2024-03-08T11:20:10;100035.00;;;6.98;100.00
24486;BME280;13449;49.374;8.584;2024-03-08T11:22:48;100027.88;;;7.00;100.00
24486;BME280;13449;49.374;8.584;2024-03-08T11:25:39;100028.69;;;6.87;100.00
24486;BME280;13449;49.374;8.584;2024-03-08T11:30:44;100018.41;;;7.10;100.00
24486;BME280;13449;49.374;8.584;2024-03-08T11:33:16;100007.09;;;7.22;100.00
24486;BME280;13449;49.374;8.584;2024-03-08T11:35:43;99991.53;;;7.44;100.00
24486;BME280;13449;49.374;8.584;2024-03-08T11:38:12;99989.53;;;7.72;100.00
24486;BME280;13449;49.374;8.584;2024-03-08T11:40:40;99983.47;;;7.95;100.00
24486;BME280;13449;49.374;8.584;2024-03-08T11:43:07;99984.13;;;8.10;100.00
24486;BME280;13449;49.374;8.584;2024-03-08T11:45:35;99992.50;;;8.50;100.00
24486;BME280;13449;49.374;8.584;2024-03-08T11:48:03;99982.13;;;8.37;100.00
24486;BME280;13449;49.374;8.584;2024-03-08T11:50:31;99969.91;;;8.72;100.00
24486;BME280;13449;49.374;8.584;2024-03-08T11:53:05;99968.44;;;8.67;100.00
24486;BME280;13449;49.374;8.584;2024-03-08T11:55:32;99959.63;;;8.68;100.00
24486;BME280;13449;49.374;8.584;2024-03-08T11:58:03;99956.66;;;8.84;100.00
24486;BME280;13449;49.374;8.584;2024-03-08T12:00:31;99947.19;;;8.59;100.00
24486;BME280;13449;49.374;8.584;2024-03-08T12:03:05;99946.22;;;8.49;100.00
24486;BME280;13449;49.374;8.584;2024-03-08T12:05:33;99941.34;;;8.56;100.00
24486;BME280;13449;49.374;8.584;2024-03-08T12:08:01;99933.81;;;8.51;100.00
24486;BME280;13449;49.374;8.584;2024-03-08T12:10:28;99939.69;;;8.55;100.00
24486;BME280;13449;49.374;8.584;2024-03-08T12:12:58;99933.59;;;8.65;100.00
24486;BME280;13449;49.374;8.584;2024-03-08T12:15:29;99918.78;;;8.64;100.00
24486;BME280;13449;49.374;8.584;2024-03-08T12:17:59;99920.00;;;8.60;100.00
24486;BME280;13449;49.374;8.584;2024-03-08T12:20:28;99918.66;;;8.44;100.00
24486;BME280;13449;49.374;8.584;2024-03-08T12:22:57;99909.84;;;8.67;100.00
24486;BME280;13449;49.374;8.584;2024-03-08T12:25:30;99905.41;;;8.67;100.00
24486;BME280;13449;49.374;8.584;2024-03-08T12:28:10;99902.09;;;8.65;100.00
24486;BME280;13449;49.374;8.584;2024-03-08T12:30:49;99901.50;;;8.84;100.00
24486;BME280;13449;49.374;8.584;2024-03-08T12:33:17;99901.00;;;8.79;100.00
24486;BME280;13449;49.374;8.584;2024-03-08T12:35:56;99897.09;;;8.74;100.00
24486;BME280;13449;49.374;8.584;2024-03-08T12:38:28;99874.28;;;8.74;100.00
24486;BME280;13449;49.374;8.584;2024-03-08T12:40:55;99885.25;;;8.90;100.00
24486;BME280;13449;49.374;8.584;2024-03-08T12:43:24;99875.47;;;8.81;100.00
24486;BME280;13449;49.374;8.584;2024-03-08T12:45:51;99880.13;;;9.00;100.00
24486;BME280;13449;49.374;8.584;2024-03-08T12:48:18;99870.44;;;9.00;100.00
24486;BME280;13449;49.374;8.584;2024-03-08T12:50:49;99862.44;;;9.02;100.00
24486;BME280;13449;49.374;8.584;2024-03-08T12:53:20;99850.44;;;9.32;100.00
24486;BME280;13449;49.374;8.584;2024-03-08T12:55:46;99849.94;;;9.38;100.00
24486;BME280;13449;49.374;8.584;2024-03-08T12:58:13;99845.47;;;9.49;100.00
24486;BME280;13449;49.374;8.584;2024-03-08T13:00:40;99836.97;;;9.46;100.00
24486;BME280;13449;49.374;8.584;2024-03-08T13:03:10;99829.09;;;9.46;100.00
24486;BME280;13449;49.374;8.584;2024-03-08T13:05:39;99834.53;;;9.65;100.00
24486;BME280;13449;49.374;8.584;2024-03-08T13:08:07;99824.66;;;9.78;100.00
24486;BME280;13449;49.374;8.584;2024-03-08T13:10:40;99821.28;;;9.76;100.00
24486;BME280;13449;49.374;8.584;2024-03-08T13:13:11;99809.19;;;9.85;100.00
24486;BME280;13449;49.374;8.584;2024-03-08T13:15:44;99814.84;;;9.80;100.00
24486;BME280;13449;49.374;8.584;2024-03-08T13:18:11;99800.78;;;9.70;100.00
24486;BME280;13449;49.374;8.584;2024-03-08T13:20:37;99797.56;;;9.87;100.00